Time;durP1;ratioP1;P1;durP2;ratioP2;P2;SDS_P1;SDS_P2;PMS_P1;PMS_P2;Temp;Humidity;BMP_temperature;BMP_pressure;BME280_temperature;BME280_humidity;BME280_pressure;Samples;Min_cycle;Max_cycle;Signal;HPM_P1;HPM_P2
2022/12/04 00:02:16;;;;;;;;;0.00;0.00;;;;;;;;5112728;27;28488;-95
2022/12/04 00:04:41;;;;;;;;;0.00;0.00;;;;;;;;5113212;27;27988;-94
2022/12/04 00:07:07;;;;;;;;;0.00;0.00;;;;;;;;5112203;27;30080;-94
2022/12/04 00:09:32;;;;;;;;;0.67;0.67;;;;;;;;5111033;27;29695;-94
2022/12/04 00:11:57;;;;;;;;;0.00;0.00;;;;;;;;5112846;27;28482;-94
2022/12/04 00:14:22;;;;;;;;;18.00;18.00;;;;;;;;5105395;27;28453;-94
2022/12/04 00:16:49;;;;;;;;;0.00;0.00;;;;;;;;5111784;27;29821;-95
2022/12/04 00:19:14;;;;;;;;;15.00;15.00;;;;;;;;5111899;27;28831;-95
2022/12/04 00:21:39;;;;;;;;;0.00;0.00;;;;;;;;5111526;27;28385;-93
2022/12/04 00:24:05;;;;;;;;;0.00;0.00;;;;;;;;5112425;27;28455;-94
2022/12/04 00:26:30;;;;;;;;;1.00;1.00;;;;;;;;5111351;27;30148;-94
2022/12/04 00:28:55;;;;;;;;;0.00;0.00;;;;;;;;5112211;27;28481;-94
2022/12/04 00:31:25;;;;;;;;;0.00;0.00;;;;;;;;5111357;27;29051;-94
2022/12/04 00:33:50;;;;;;;;;0.00;0.00;;;;;;;;5112127;27;28508;-95
2022/12/04 00:36:17;;;;;;;;;0.00;0.00;;;;;;;;5111070;27;30301;-94
2022/12/04 00:38:43;;;;;;;;;0.00;0.00;;;;;;;;5112081;27;28790;-94
2022/12/04 00:41:13;;;;;;;;;0.00;0.00;;;;;;;;5111266;27;28461;-94
2022/12/04 00:43:38;;;;;;;;;0.00;0.00;;;;;;;;5112726;27;28560;-93
2022/12/04 00:46:04;;;;;;;;;0.00;0.00;;;;;;;;5111969;27;30964;-94
2022/12/04 00:48:29;;;;;;;;;0.00;0.00;;;;;;;;5111948;27;28456;-95
2022/12/04 00:50:54;;;;;;;;;0.00;0.00;;;;;;;;5115311;27;28468;-93
2022/12/04 00:53:20;;;;;;;;;0.00;0.00;;;;;;;;5115375;27;28342;-91
2022/12/04 00:55:45;;;;;;;;;0.00;0.00;;;;;;;;5114380;27;29953;-93
2022/12/04 00:58:11;;;;;;;;;0.00;0.00;;;;;;;;5111691;27;28642;-95
2022/12/04 01:00:37;;;;;;;;;0.00;0.00;;;;;;;;5111766;27;28336;-93
2022/12/04 01:03:03;;;;;;;;;0.00;0.00;;;;;;;;5110675;27;28410;-95
2022/12/04 01:05:28;;;;;;;;;0.00;0.00;;;;;;;;5111244;27;31074;-95
2022/12/04 01:07:53;;;;;;;;;0.00;0.00;;;;;;;;5111134;27;29779;-95
2022/12/04 01:10:19;;;;;;;;;0.00;0.00;;;;;;;;5111112;27;28566;-94
2022/12/04 01:12:44;;;;;;;;;0.00;0.00;;;;;;;;5111478;27;28742;-94
2022/12/04 01:15:09;;;;;;;;;0.00;0.00;;;;;;;;5110980;27;29752;-94
2022/12/04 01:17:34;;;;;;;;;0.00;0.00;;;;;;;;5110918;27;28890;-94
2022/12/04 01:19:59;;;;;;;;;0.00;0.00;;;;;;;;5110961;27;28648;-95
2022/12/04 01:22:25;;;;;;;;;0.00;0.00;;;;;;;;5111818;27;28579;-94
2022/12/04 01:24:53;;;;;;;;;0.00;0.00;;;;;;;;5110893;27;29747;-94
2022/12/04 01:27:18;;;;;;;;;1.00;1.00;;;;;;;;5111669;27;28945;-94
2022/12/04 01:29:44;;;;;;;;;0.00;0.00;;;;;;;;5110851;27;28321;-95
2022/12/04 01:32:10;;;;;;;;;1.00;1.00;;;;;;;;5110927;27;28409;-95
2022/12/04 01:34:35;;;;;;;;;3.00;3.00;;;;;;;;5111045;27;29723;-95
2022/12/04 01:37:00;;;;;;;;;0.00;0.00;;;;;;;;5111308;27;29656;-94
2022/12/04 01:39:25;;;;;;;;;0.00;0.00;;;;;;;;5111493;27;28341;-95
2022/12/04 01:41:50;;;;;;;;;0.00;0.00;;;;;;;;5111798;27;28572;-94
2022/12/04 01:44:18;;;;;;;;;0.00;0.00;;;;;;;;5111934;27;30704;-94
2022/12/04 01:46:44;;;;;;;;;0.00;0.00;;;;;;;;5111210;27;28643;-95
2022/12/04 01:49:12;;;;;;;;;0.00;0.00;;;;;;;;5113379;27;27834;-94
2022/12/04 01:51:41;;;;;;;;;0.00;0.00;;;;;;;;5113753;27;28607;-93
2022/12/04 01:54:09;;;;;;;;;0.00;0.00;;;;;;;;5113498;27;30779;-93
2022/12/04 01:56:45;;;;;;;;;0.00;0.00;;;;;;;;5112017;27;28555;-95
2022/12/04 01:59:12;;;;;;;;;0.00;0.00;;;;;;;;5103167;27;28524;-94
2022/12/04 02:01:48;;;;;;;;;0.00;0.00;;;;;;;;5111864;27;28362;-94
2022/12/04 02:04:13;;;;;;;;;0.00;0.00;;;;;;;;5102993;27;29931;-94
2022/12/04 02:06:39;;;;;;;;;0.00;0.00;;;;;;;;5110649;27;28614;-95
2022/12/04 02:09:04;;;;;;;;;0.00;0.00;;;;;;;;5111269;27;28283;-94
2022/12/04 02:11:36;;;;;;;;;0.00;0.00;;;;;;;;5110082;27;28456;-93
2022/12/04 02:14:01;;;;;;;;;0.00;0.00;;;;;;;;5111151;27;30625;-94
2022/12/04 02:16:29;;;;;;;;;12.00;12.00;;;;;;;;5113526;27;28914;-95
2022/12/04 02:19:03;;;;;;;;;0.67;0.67;;;;;;;;5114356;27;28462;-93
2022/12/04 02:21:33;;;;;;;;;0.00;0.00;;;;;;;;5113392;27;27973;-94
2022/12/04 02:24:14;;;;;;;;;0.00;0.00;;;;;;;;5114087;27;30053;-94
2022/12/04 02:26:48;;;;;;;;;0.00;0.00;;;;;;;;5095455;27;44941;-93
2022/12/04 02:29:13;;;;;;;;;0.00;0.00;;;;;;;;5114253;27;27866;-96
2022/12/04 02:31:47;;;;;;;;;6.33;6.00;;;;;;;;5113395;27;28564;-94
2022/12/04 02:34:20;;;;;;;;;0.33;0.33;;;;;;;;5110643;27;31079;-94
2022/12/04 02:36:53;;;;;;;;;0.00;0.00;;;;;;;;5113411;27;28662;-94
2022/12/04 02:39:27;;;;;;;;;0.00;0.00;;;;;;;;5114373;27;28679;-93
2022/12/04 02:41:56;;;;;;;;;0.00;0.00;;;;;;;;5114228;27;28552;-94
2022/12/04 02:44:27;;;;;;;;;0.00;0.00;;;;;;;;5114538;27;30386;-95
2022/12/04 02:46:58;;;;;;;;;0.00;0.00;;;;;;;;5105704;27;29153;-94
2022/12/04 02:49:27;;;;;;;;;0.00;0.00;;;;;;;;5116153;27;28434;-93
2022/12/04 02:51:54;;;;;;;;;0.00;0.00;;;;;;;;5113750;27;28643;-95
2022/12/04 02:54:25;;;;;;;;;0.00;0.00;;;;;;;;5115885;27;30218;-95
2022/12/04 02:56:51;;;;;;;;;0.33;0.33;;;;;;;;5113121;27;29740;-94
2022/12/04 02:59:30;;;;;;;;;0.00;0.00;;;;;;;;5113890;27;28533;-94
2022/12/04 03:01:57;;;;;;;;;0.00;0.00;;;;;;;;5113284;27;27932;-94
2022/12/04 03:04:25;;;;;;;;;0.00;0.00;;;;;;;;5113258;27;29935;-93
2022/12/04 03:06:53;;;;;;;;;0.00;0.00;;;;;;;;5112931;27;28838;-96
2022/12/04 03:09:23;;;;;;;;;0.67;0.67;;;;;;;;5113814;27;28433;-94
2022/12/04 03:11:51;;;;;;;;;0.00;0.00;;;;;;;;5112787;27;28631;-94
2022/12/04 03:14:19;;;;;;;;;8.67;8.67;;;;;;;;5113120;27;30783;-95
2022/12/04 03:16:46;;;;;;;;;0.00;0.00;;;;;;;;5112948;27;28641;-93
2022/12/04 03:19:17;;;;;;;;;6.67;6.67;;;;;;;;5113212;27;28488;-93
2022/12/04 03:21:46;;;;;;;;;0.00;0.00;;;;;;;;5112574;27;28459;-94
2022/12/04 03:24:16;;;;;;;;;0.00;0.00;;;;;;;;5104956;27;30243;-94
2022/12/04 03:26:46;;;;;;;;;0.00;0.00;;;;;;;;5110965;27;30011;-94
2022/12/04 03:29:18;;;;;;;;;0.00;0.00;;;;;;;;5113585;27;28520;-94
2022/12/04 03:31:49;;;;;;;;;0.00;0.00;;;;;;;;5112886;27;28718;-94
2022/12/04 03:34:25;;;;;;;;;0.00;0.00;;;;;;;;5108821;27;31789;-94
2022/12/04 03:37:02;;;;;;;;;0.00;0.00;;;;;;;;5131859;27;24762;-94
2022/12/04 03:39:30;;;;;;;;;0.00;0.00;;;;;;;;5132544;27;8870;-95
2022/12/04 03:42:02;;;;;;;;;0.00;0.00;;;;;;;;5132893;27;8859;-94
2022/12/04 03:44:33;;;;;;;;;0.00;0.00;;;;;;;;5132844;27;8784;-94
2022/12/04 03:47:19;;;;;;;;;27.00;27.00;;;;;;;;5133162;27;8810;-94
2022/12/04 03:49:44;;;;;;;;;0.00;0.00;;;;;;;;5132830;27;8806;-93
2022/12/04 03:52:09;;;;;;;;;0.00;0.00;;;;;;;;5135465;27;8798;-93
2022/12/04 03:54:41;;;;;;;;;4.00;0.00;;;;;;;;5133581;27;8782;-94
2022/12/04 03:57:10;;;;;;;;;0.00;0.00;;;;;;;;5132952;27;8898;-94
2022/12/04 03:59:41;;;;;;;;;0.00;0.00;;;;;;;;5132489;27;8802;-94
2022/12/04 04:02:09;;;;;;;;;0.00;0.00;;;;;;;;5121043;27;8884;-94
2022/12/04 04:04:35;;;;;;;;;0.00;0.00;;;;;;;;5131738;27;8818;-94
2022/12/04 04:07:03;;;;;;;;;0.00;0.00;;;;;;;;5132260;27;8816;-94
2022/12/04 04:09:31;;;;;;;;;0.00;0.00;;;;;;;;5132363;27;8895;-92
2022/12/04 04:12:00;;;;;;;;;0.00;0.00;;;;;;;;5132346;27;8846;-93
2022/12/04 04:25:38;;;;;;;;;0.00;0.00;;;;;;;;5130559;27;8837;-95
2022/12/04 04:28:03;;;;;;;;;0.00;0.00;;;;;;;;5132035;27;8798;-95
2022/12/04 04:30:30;;;;;;;;;0.00;0.00;;;;;;;;5132249;27;8820;-93
2022/12/04 04:32:58;;;;;;;;;3.00;3.00;;;;;;;;5131624;27;8802;-93
2022/12/04 04:35:38;;;;;;;;;0.00;0.00;;;;;;;;5128244;27;8924;-94
2022/12/04 04:38:14;;;;;;;;;0.00;0.00;;;;;;;;5131448;27;8845;-93
2022/12/04 04:40:49;;;;;;;;;0.00;0.00;;;;;;;;5132320;27;8925;-94
2022/12/04 04:43:19;;;;;;;;;0.00;0.00;;;;;;;;5132607;27;8923;-94
2022/12/04 04:45:46;;;;;;;;;0.00;0.00;;;;;;;;5133030;27;8825;-93
2022/12/04 04:48:20;;;;;;;;;0.00;0.00;;;;;;;;5133852;27;8745;-93
2022/12/04 04:50:46;;;;;;;;;0.00;0.00;;;;;;;;5135476;27;8790;-94
2022/12/04 04:53:14;;;;;;;;;0.00;0.00;;;;;;;;5134690;27;8806;-93
2022/12/04 04:55:39;;;;;;;;;0.00;0.00;;;;;;;;5131514;27;8837;-93
2022/12/04 04:58:09;;;;;;;;;0.00;0.00;;;;;;;;5131222;27;8920;-94
2022/12/04 05:00:34;;;;;;;;;0.00;0.00;;;;;;;;5131826;27;8806;-93
2022/12/04 05:03:00;;;;;;;;;0.00;0.00;;;;;;;;5130716;27;8825;-93
2022/12/04 05:05:25;;;;;;;;;0.00;0.00;;;;;;;;5131388;27;8828;-94
2022/12/04 05:07:50;;;;;;;;;0.00;0.00;;;;;;;;5131728;27;8825;-94
2022/12/04 05:10:15;;;;;;;;;0.00;0.00;;;;;;;;5126472;27;8816;-94
2022/12/04 05:12:40;;;;;;;;;2.00;2.00;;;;;;;;5131529;27;9557;-93
2022/12/04 05:15:06;;;;;;;;;0.00;0.00;;;;;;;;5131340;27;8810;-93
2022/12/04 05:17:33;;;;;;;;;0.67;0.67;;;;;;;;5131266;27;8821;-94
2022/12/04 05:19:58;;;;;;;;;0.00;0.00;;;;;;;;5130996;27;8887;-94
2022/12/04 05:22:33;;;;;;;;;0.00;0.00;;;;;;;;5131440;27;8806;-94
2022/12/04 05:24:59;;;;;;;;;7.00;7.00;;;;;;;;5131064;27;8806;-94
2022/12/04 05:27:25;;;;;;;;;0.00;0.00;;;;;;;;5131434;27;8806;-94
2022/12/04 05:29:54;;;;;;;;;0.00;0.00;;;;;;;;5131361;27;9545;-94
2022/12/04 05:32:20;;;;;;;;;0.00;0.00;;;;;;;;5131673;27;8809;-94
2022/12/04 05:34:49;;;;;;;;;0.00;0.00;;;;;;;;5131191;27;8841;-94
2022/12/04 05:37:14;;;;;;;;;0.00;0.00;;;;;;;;5131654;27;8802;-93
2022/12/04 05:39:39;;;;;;;;;0.00;0.00;;;;;;;;5130693;27;8906;-94
2022/12/04 05:42:04;;;;;;;;;0.00;0.00;;;;;;;;5131855;27;9600;-95
2022/12/04 05:44:30;;;;;;;;;0.00;0.00;;;;;;;;5132149;27;8932;-95
2022/12/04 05:46:55;;;;;;;;;0.00;0.00;;;;;;;;5131923;27;8813;-95
2022/12/04 05:49:20;;;;;;;;;4.00;4.00;;;;;;;;5134319;27;8805;-93
2022/12/04 05:51:45;;;;;;;;;0.00;0.00;;;;;;;;5136485;27;8806;-93
2022/12/04 05:54:10;;;;;;;;;0.00;0.00;;;;;;;;5135941;27;8860;-94
2022/12/04 05:56:36;;;;;;;;;0.00;0.00;;;;;;;;5134901;27;8821;-94
2022/12/04 05:59:01;;;;;;;;;1.00;0.00;;;;;;;;5135031;27;8929;-94
2022/12/04 06:01:26;;;;;;;;;0.00;0.00;;;;;;;;5133753;27;8825;-93
2022/12/04 06:03:51;;;;;;;;;0.00;0.00;;;;;;;;5134594;27;8834;-93
2022/12/04 06:06:18;;;;;;;;;0.00;0.00;;;;;;;;5134014;27;9021;-95
2022/12/04 06:08:43;;;;;;;;;0.00;0.00;;;;;;;;5134396;27;8891;-94
2022/12/04 06:11:10;;;;;;;;;0.00;0.00;;;;;;;;5133537;27;8810;-94
2022/12/04 06:13:35;;;;;;;;;0.00;0.00;;;;;;;;5134389;27;8822;-95
2022/12/04 06:16:00;;;;;;;;;0.00;0.00;;;;;;;;5131197;27;8818;-93
2022/12/04 06:18:25;;;;;;;;;0.00;0.00;;;;;;;;5133863;27;8878;-95
2022/12/04 06:20:50;;;;;;;;;2.00;2.00;;;;;;;;5127449;27;8796;-93
2022/12/04 06:23:16;;;;;;;;;10.00;10.00;;;;;;;;5131785;27;8810;-93
2022/12/04 06:25:41;;;;;;;;;0.00;0.00;;;;;;;;5133738;27;8790;-93
2022/12/04 06:28:06;;;;;;;;;0.00;0.00;;;;;;;;5133899;27;8806;-92
2022/12/04 06:30:32;;;;;;;;;0.00;0.00;;;;;;;;5134024;27;8802;-94
2022/12/04 06:32:57;;;;;;;;;0.00;0.00;;;;;;;;5134126;27;8822;-95
2022/12/04 06:35:23;;;;;;;;;0.00;0.00;;;;;;;;5133639;27;8794;-93
2022/12/04 06:37:48;;;;;;;;;0.00;0.00;;;;;;;;5134043;27;8890;-95
2022/12/04 06:40:13;;;;;;;;;0.00;0.00;;;;;;;;5133077;27;8794;-94
2022/12/04 06:42:38;;;;;;;;;0.00;0.00;;;;;;;;5133841;27;8895;-93
2022/12/04 06:45:04;;;;;;;;;0.00;0.00;;;;;;;;5133775;27;8786;-94
2022/12/04 06:47:29;;;;;;;;;6.00;6.00;;;;;;;;5134437;27;8809;-95
2022/12/04 06:49:54;;;;;;;;;12.00;12.00;;;;;;;;5133749;27;8814;-95
2022/12/04 06:52:19;;;;;;;;;3.00;3.00;;;;;;;;5133701;27;8909;-94
2022/12/04 06:54:45;;;;;;;;;0.00;0.00;;;;;;;;5134071;27;8977;-94
2022/12/04 06:57:10;;;;;;;;;0.00;0.00;;;;;;;;5133877;27;8821;-94
2022/12/04 06:59:35;;;;;;;;;0.00;0.00;;;;;;;;5132971;27;8802;-94
2022/12/04 07:02:00;;;;;;;;;0.00;0.00;;;;;;;;5133379;27;9573;-94
2022/12/04 07:04:25;;;;;;;;;1.00;1.00;;;;;;;;5133255;27;9925;-93
2022/12/04 07:06:51;;;;;;;;;0.00;0.00;;;;;;;;5132953;27;8817;-94
2022/12/04 07:09:16;;;;;;;;;0.00;0.00;;;;;;;;5133806;27;8816;-93
2022/12/04 07:11:42;;;;;;;;;0.00;0.00;;;;;;;;5132601;27;8790;-94
2022/12/04 07:14:07;;;;;;;;;0.00;0.00;;;;;;;;5133283;27;8840;-93
2022/12/04 07:16:33;;;;;;;;;0.00;0.00;;;;;;;;5132698;27;8822;-94
2022/12/04 07:18:58;;;;;;;;;0.00;0.00;;;;;;;;5133390;27;8834;-95
2022/12/04 07:21:25;;;;;;;;;0.00;0.00;;;;;;;;5132152;27;8790;-93
2022/12/04 07:23:52;;;;;;;;;2.00;2.00;;;;;;;;5133235;27;8967;-94
2022/12/04 07:26:18;;;;;;;;;0.00;0.00;;;;;;;;5132244;27;8806;-95
2022/12/04 07:28:46;;;;;;;;;0.00;0.00;;;;;;;;5133624;27;8810;-94
2022/12/04 07:31:13;;;;;;;;;0.00;0.00;;;;;;;;5132759;27;8825;-94
2022/12/04 07:33:38;;;;;;;;;0.00;0.00;;;;;;;;5128858;27;8812;-94
2022/12/04 07:36:05;;;;;;;;;0.00;0.00;;;;;;;;5132585;27;8817;-94
2022/12/04 07:38:31;;;;;;;;;0.00;0.00;;;;;;;;5133037;27;8790;-95
2022/12/04 07:40:57;;;;;;;;;0.00;0.00;;;;;;;;5132335;27;8916;-94
2022/12/04 07:43:22;;;;;;;;;0.00;0.00;;;;;;;;5132909;27;8801;-94
2022/12/04 07:45:47;;;;;;;;;0.00;0.00;;;;;;;;5132402;27;8844;-92
2022/12/04 07:48:12;;;;;;;;;0.00;0.00;;;;;;;;5132961;27;8834;-94
2022/12/04 07:50:38;;;;;;;;;4.33;4.33;;;;;;;;5133676;27;8810;-94
2022/12/04 07:53:03;;;;;;;;;0.00;0.00;;;;;;;;5133466;27;8829;-93
2022/12/04 07:55:33;;;;;;;;;0.00;0.00;;;;;;;;5133191;27;8810;-94
2022/12/04 07:57:58;;;;;;;;;0.00;0.00;;;;;;;;5139244;27;8798;-95
2022/12/04 08:00:24;;;;;;;;;0.00;0.00;;;;;;;;5138325;27;8879;-96
2022/12/04 08:02:49;;;;;;;;;1.00;1.00;;;;;;;;5142146;27;9813;-91
2022/12/04 08:10:30;;;;;;;;;0.00;0.00;;;;;;;;6001833;22;8733;-96
2022/12/04 08:12:56;;;;;;;;;0.00;0.00;;;;;;;;5132224;27;8849;-96
2022/12/04 08:15:21;;;;;;;;;0.00;0.00;;;;;;;;5127007;27;8983;-94
2022/12/04 08:17:46;;;;;;;;;0.00;0.00;;;;;;;;5123817;27;9557;-96
2022/12/04 08:20:11;;;;;;;;;0.00;0.00;;;;;;;;5131627;27;9642;-95
2022/12/04 08:22:36;;;;;;;;;0.00;0.00;;;;;;;;5144670;27;8802;-96
2022/12/04 08:25:02;;;;;;;;;0.00;0.00;;;;;;;;5140532;22;8843;-96
2022/12/04 08:27:27;;;;;;;;;0.00;0.00;;;;;;;;5077717;28;8838;-96
2022/12/04 08:29:52;;;;;;;;;0.00;0.00;;;;;;;;5095270;28;8833;-95
2022/12/04 08:32:17;;;;;;;;;0.00;0.00;;;;;;;;5078333;28;9794;-96
2022/12/04 08:37:10;;;;;;;;;0.00;0.00;;;;;;;;5433146;22;8939;-96
2022/12/04 08:39:35;;;;;;;;;0.00;0.00;;;;;;;;5147868;27;8783;-96
2022/12/04 08:42:01;;;;;;;;;0.00;0.00;;;;;;;;5207384;22;8860;-93
2022/12/04 08:44:26;;;;;;;;;0.00;0.00;;;;;;;;5128882;27;8904;-95
2022/12/04 08:46:51;;;;;;;;;0.00;0.00;;;;;;;;5139450;27;8875;-95
2022/12/04 08:49:16;;;;;;;;;0.00;0.00;;;;;;;;5126044;27;8822;-94
2022/12/04 08:51:41;;;;;;;;;0.00;0.00;;;;;;;;5127487;27;9560;-95
2022/12/04 08:54:07;;;;;;;;;0.00;0.00;;;;;;;;5142098;27;10071;-94
2022/12/04 08:56:33;;;;;;;;;0.00;0.00;;;;;;;;5115236;27;8806;-94
2022/12/04 08:58:59;;;;;;;;;0.00;0.00;;;;;;;;5137362;27;9840;-93
2022/12/04 09:01:27;;;;;;;;;0.00;0.00;;;;;;;;5126264;27;8819;-95
2022/12/04 09:03:52;;;;;;;;;3.00;3.00;;;;;;;;5122687;27;8794;-96
2022/12/04 09:06:18;;;;;;;;;0.00;0.00;;;;;;;;5136226;27;8860;-96
2022/12/04 09:08:43;;;;;;;;;0.00;0.00;;;;;;;;5143096;27;8810;-89
2022/12/04 09:11:16;;;;;;;;;0.00;0.00;;;;;;;;5147945;27;8809;-94
2022/12/04 09:13:42;;;;;;;;;0.00;0.00;;;;;;;;5152486;27;8751;-96
2022/12/04 09:16:09;;;;;;;;;0.00;0.00;;;;;;;;5133826;27;8787;-93
2022/12/04 09:18:35;;;;;;;;;1.00;1.00;;;;;;;;5117232;27;8828;-94
2022/12/04 09:21:02;;;;;;;;;0.00;0.00;;;;;;;;5121941;27;8806;-93
2022/12/04 09:23:27;;;;;;;;;13.00;13.00;;;;;;;;5119360;27;8872;-95
2022/12/04 09:25:53;;;;;;;;;0.00;0.00;;;;;;;;5122711;27;8822;-96
2022/12/04 09:28:18;;;;;;;;;0.00;0.00;;;;;;;;5123864;27;8850;-94
2022/12/04 09:30:43;;;;;;;;;0.00;0.00;;;;;;;;5122308;27;8811;-96
2022/12/04 09:33:09;;;;;;;;;0.00;0.00;;;;;;;;5118030;27;8870;-95
2022/12/04 09:35:34;;;;;;;;;0.00;0.00;;;;;;;;5142012;27;8798;-94
2022/12/04 09:37:59;;;;;;;;;0.00;0.00;;;;;;;;5119926;27;8807;-96
2022/12/04 09:40:26;;;;;;;;;0.00;0.00;;;;;;;;5128657;27;9677;-96
2022/12/04 09:43:01;;;;;;;;;0.00;0.00;;;;;;;;5135362;27;8726;-96
2022/12/04 10:37:14;;;;;;;;;0.00;0.00;;;;;;;;5709584;22;8909;-96
2022/12/04 10:39:59;;;;;;;;;0.00;0.00;;;;;;;;5260214;22;8955;-96
2022/12/04 10:42:48;;;;;;;;;13.00;13.00;;;;;;;;5612410;22;8818;-95
2022/12/04 10:45:13;;;;;;;;;6.00;6.00;;;;;;;;5117893;28;8794;-96
2022/12/04 10:47:42;;;;;;;;;1.00;1.00;;;;;;;;5133949;27;8769;-96
2022/12/04 10:52:43;;;;;;;;;19.00;19.00;;;;;;;;5436932;22;8759;-96
2022/12/04 10:55:08;;;;;;;;;0.00;0.00;;;;;;;;5353938;22;8865;-96
2022/12/04 10:57:37;;;;;;;;;0.00;0.00;;;;;;;;5148012;27;8763;-96
2022/12/04 11:00:04;;;;;;;;;0.00;0.00;;;;;;;;5217069;22;8776;-96
2022/12/04 11:02:39;;;;;;;;;0.00;0.00;;;;;;;;5348500;22;8769;-96
2022/12/04 11:05:09;;;;;;;;;4.00;4.00;;;;;;;;5919499;22;8824;-96
2022/12/04 11:07:35;;;;;;;;;9.67;9.67;;;;;;;;5336558;22;8900;-96
2022/12/04 11:10:20;;;;;;;;;0.00;0.00;;;;;;;;5818797;22;8788;-95
2022/12/04 11:12:55;;;;;;;;;0.00;0.00;;;;;;;;5357578;22;8790;-96
2022/12/04 11:18:09;;;;;;;;;12.00;12.00;;;;;;;;5941787;22;8892;31
2022/12/04 11:21:00;;;;;;;;;0.00;0.00;;;;;;;;5792272;22;8822;-96
2022/12/04 11:23:26;;;;;;;;;0.00;0.00;;;;;;;;5390986;22;8834;-96
2022/12/04 11:25:54;;;;;;;;;0.00;0.00;;;;;;;;5313417;22;8813;-96
2022/12/04 11:28:21;;;;;;;;;1.67;0.00;;;;;;;;5128689;27;8802;-92
2022/12/04 11:30:51;;;;;;;;;0.00;0.00;;;;;;;;5144354;27;8778;-96
2022/12/04 11:33:34;;;;;;;;;0.00;0.00;;;;;;;;5129077;27;8854;-96
2022/12/04 11:36:03;;;;;;;;;0.00;0.00;;;;;;;;5145092;27;8770;-94
2022/12/04 11:38:30;;;;;;;;;6.00;6.00;;;;;;;;5218752;22;8800;-96
2022/12/04 11:40:56;;;;;;;;;1.00;1.00;;;;;;;;5127324;27;8810;-95
2022/12/04 11:43:26;;;;;;;;;4.00;4.00;;;;;;;;5123144;27;8810;-92
2022/12/04 11:46:02;;;;;;;;;9.00;9.00;;;;;;;;5123455;27;8803;-95
2022/12/04 11:48:31;;;;;;;;;3.00;3.00;;;;;;;;5123293;27;8832;-95
2022/12/04 11:51:15;;;;;;;;;9.00;9.00;;;;;;;;5128162;27;8795;-93
2022/12/04 11:53:44;;;;;;;;;0.00;0.00;;;;;;;;5113346;27;8852;-95
2022/12/04 11:56:25;;;;;;;;;3.00;3.00;;;;;;;;5145261;27;8791;-94
2022/12/04 11:58:57;;;;;;;;;0.00;0.00;;;;;;;;5113374;27;8891;-95
2022/12/04 12:01:25;;;;;;;;;0.00;0.00;;;;;;;;5126577;27;8795;-96
2022/12/04 12:04:04;;;;;;;;;0.00;0.00;;;;;;;;5142726;27;8897;-93
2022/12/04 12:06:33;;;;;;;;;7.00;7.00;;;;;;;;5139500;27;8818;-92
2022/12/04 12:09:07;;;;;;;;;0.00;0.00;;;;;;;;5140842;27;8775;-96
2022/12/04 12:11:48;;;;;;;;;0.00;0.00;;;;;;;;5117701;27;8822;-96
2022/12/04 12:14:32;;;;;;;;;25.00;25.00;;;;;;;;5142219;27;8829;-96
2022/12/04 12:17:26;;;;;;;;;0.00;0.00;;;;;;;;5143214;27;8747;-95
2022/12/04 12:20:10;;;;;;;;;3.00;3.00;;;;;;;;5102350;28;8823;-96
2022/12/04 12:22:44;;;;;;;;;0.00;0.00;;;;;;;;5097962;28;8837;-96
2022/12/04 12:28:02;;;;;;;;;0.00;0.00;;;;;;;;5242104;22;8763;-95
2022/12/04 12:33:03;;;;;;;;;0.00;0.00;;;;;;;;5107695;28;8855;-95
2022/12/04 12:35:50;;;;;;;;;1.00;1.00;;;;;;;;5085705;28;8838;-96
2022/12/04 12:38:20;;;;;;;;;0.00;0.00;;;;;;;;5094646;28;8814;-91
2022/12/04 12:41:09;;;;;;;;;0.00;0.00;;;;;;;;5092450;28;8934;-91
2022/12/04 12:43:35;;;;;;;;;0.00;0.00;;;;;;;;5027039;28;8755;-90
2022/12/04 12:46:11;;;;;;;;;0.00;0.00;;;;;;;;5016516;28;8791;-95
2022/12/04 12:48:42;;;;;;;;;0.00;0.00;;;;;;;;5012389;28;8807;-89
2022/12/04 12:51:15;;;;;;;;;0.00;0.00;;;;;;;;5027247;28;8893;-89
2022/12/04 12:53:44;;;;;;;;;0.00;0.00;;;;;;;;5010391;28;8782;-89
2022/12/04 12:56:10;;;;;;;;;0.00;0.00;;;;;;;;5022215;28;8836;-88
2022/12/04 12:58:38;;;;;;;;;0.00;0.00;;;;;;;;5028387;28;8826;-88
2022/12/04 13:01:18;;;;;;;;;0.00;0.00;;;;;;;;5023041;28;8906;-88
2022/12/04 13:03:46;;;;;;;;;0.00;0.00;;;;;;;;5011507;28;8881;-88
2022/12/04 13:06:17;;;;;;;;;1.00;1.00;;;;;;;;5026128;28;8756;-88
2022/12/04 13:08:51;;;;;;;;;7.33;7.33;;;;;;;;5026040;28;8783;-89
2022/12/04 13:11:16;;;;;;;;;0.00;0.00;;;;;;;;5010300;28;8917;-87
2022/12/04 13:13:44;;;;;;;;;1.00;1.00;;;;;;;;5028176;28;8855;-89
2022/12/04 13:16:16;;;;;;;;;0.00;0.00;;;;;;;;5010174;28;8814;-89
2022/12/04 13:19:02;;;;;;;;;0.00;0.00;;;;;;;;5028623;28;8925;-90
2022/12/04 13:21:36;;;;;;;;;0.00;0.00;;;;;;;;5054959;28;8759;-88
2022/12/04 13:24:04;;;;;;;;;0.00;0.00;;;;;;;;5073422;28;8831;-87
2022/12/04 13:26:39;;;;;;;;;0.00;0.00;;;;;;;;5075121;28;8809;-88
2022/12/04 13:29:15;;;;;;;;;1.00;1.00;;;;;;;;5091659;28;8786;-88
2022/12/04 13:31:53;;;;;;;;;0.00;0.00;;;;;;;;5090897;28;8800;-89
2022/12/04 13:34:28;;;;;;;;;0.00;0.00;;;;;;;;5093312;28;8755;-90
2022/12/04 13:37:06;;;;;;;;;0.67;0.67;;;;;;;;5072653;28;8815;-89
2022/12/04 13:39:50;;;;;;;;;0.00;0.00;;;;;;;;5074694;28;8832;-89
2022/12/04 13:42:20;;;;;;;;;0.00;0.00;;;;;;;;5090351;28;8811;-90
2022/12/04 13:44:51;;;;;;;;;0.00;0.00;;;;;;;;5068559;28;8828;-90
2022/12/04 13:47:25;;;;;;;;;0.00;0.00;;;;;;;;5090047;28;8787;-89
2022/12/04 13:49:51;;;;;;;;;0.00;0.00;;;;;;;;5072048;28;8807;-89
2022/12/04 13:52:21;;;;;;;;;0.00;0.00;;;;;;;;5071289;28;8826;-89
2022/12/04 13:54:57;;;;;;;;;0.00;0.00;;;;;;;;5071294;28;8818;-90
2022/12/04 13:57:22;;;;;;;;;0.00;0.00;;;;;;;;5071725;28;8813;-90
2022/12/04 13:59:48;;;;;;;;;0.00;0.00;;;;;;;;5071856;28;8827;-90
2022/12/04 14:02:20;;;;;;;;;0.00;0.00;;;;;;;;5071117;28;8934;-89
2022/12/04 14:04:53;;;;;;;;;0.00;0.00;;;;;;;;5071059;28;8873;-89
2022/12/04 14:07:30;;;;;;;;;0.00;0.00;;;;;;;;5072951;28;8818;-88
2022/12/04 14:09:56;;;;;;;;;0.00;0.00;;;;;;;;5071994;28;10078;-87
2022/12/04 14:12:27;;;;;;;;;0.00;0.00;;;;;;;;5092695;28;8791;-88
2022/12/04 14:14:55;;;;;;;;;9.00;9.00;;;;;;;;5092415;28;9375;-88
2022/12/04 14:17:24;;;;;;;;;0.00;0.00;;;;;;;;5093192;28;8791;-89
2022/12/04 14:19:51;;;;;;;;;3.33;3.33;;;;;;;;5075075;28;8798;-89
2022/12/04 14:22:38;;;;;;;;;0.00;0.00;;;;;;;;5099382;28;8817;-94
2022/12/04 14:25:06;;;;;;;;;0.00;0.00;;;;;;;;5077963;28;8805;-93
2022/12/04 14:27:51;;;;;;;;;0.00;0.00;;;;;;;;5079245;28;8811;-93
2022/12/04 14:30:33;;;;;;;;;0.00;0.00;;;;;;;;5076154;28;8799;-93
2022/12/04 14:33:05;;;;;;;;;0.00;0.00;;;;;;;;5089887;28;8795;-94
2022/12/04 14:35:32;;;;;;;;;0.00;0.00;;;;;;;;5083263;28;8803;-93
2022/12/04 14:37:59;;;;;;;;;4.67;4.67;;;;;;;;5078555;28;8814;-92
2022/12/04 14:40:26;;;;;;;;;0.00;0.00;;;;;;;;5101159;28;8780;-94
2022/12/04 14:42:51;;;;;;;;;0.00;0.00;;;;;;;;5080709;28;9693;-95
2022/12/04 14:45:46;;;;;;;;;0.67;0.00;;;;;;;;5095383;28;8819;-93
2022/12/04 14:48:14;;;;;;;;;9.33;7.67;;;;;;;;5078184;28;8925;-94
2022/12/04 14:50:42;;;;;;;;;0.00;0.00;;;;;;;;5095910;28;8803;-94
2022/12/04 14:53:26;;;;;;;;;11.00;11.00;;;;;;;;5077124;28;8774;-93
2022/12/04 14:55:51;;;;;;;;;0.00;0.00;;;;;;;;5079672;28;8731;-95
2022/12/04 14:58:30;;;;;;;;;0.67;0.67;;;;;;;;5078183;28;8908;-93
2022/12/04 15:01:16;;;;;;;;;0.00;0.00;;;;;;;;5083457;28;8822;-94
2022/12/04 15:03:43;;;;;;;;;0.00;0.00;;;;;;;;5085823;28;8802;-94
2022/12/04 15:06:28;;;;;;;;;0.00;0.00;;;;;;;;5083316;28;8814;-94
2022/12/04 15:14:42;;;;;;;;;0.00;0.00;;;;;;;;5089789;28;8807;-95
2022/12/04 15:17:23;;;;;;;;;0.00;0.00;;;;;;;;5087383;28;8823;-95
2022/12/04 15:20:05;;;;;;;;;0.00;0.00;;;;;;;;5093015;28;8789;-95
2022/12/04 15:22:31;;;;;;;;;3.00;3.00;;;;;;;;5085983;28;8802;-92
2022/12/04 15:24:56;;;;;;;;;7.00;7.00;;;;;;;;5082173;28;8823;-87
2022/12/04 15:27:27;;;;;;;;;0.00;0.00;;;;;;;;5092836;28;8834;-93
2022/12/04 15:29:55;;;;;;;;;0.00;0.00;;;;;;;;5101318;28;8781;-92
2022/12/04 15:32:21;;;;;;;;;0.00;0.00;;;;;;;;5075177;28;8819;-89
2022/12/04 15:34:49;;;;;;;;;0.00;0.00;;;;;;;;5075168;28;8921;-94
2022/12/04 15:37:17;;;;;;;;;0.00;0.00;;;;;;;;5095354;28;8980;-93
2022/12/04 15:39:43;;;;;;;;;0.00;0.00;;;;;;;;5099586;28;8807;-94
2022/12/04 15:42:17;;;;;;;;;0.00;0.00;;;;;;;;5079432;28;8799;-93
2022/12/04 15:45:02;;;;;;;;;0.00;0.00;;;;;;;;5076345;28;8818;-91
2022/12/04 15:47:32;;;;;;;;;1.33;1.33;;;;;;;;5097833;28;8825;-90
2022/12/04 15:50:12;;;;;;;;;0.00;0.00;;;;;;;;5073972;28;8929;-86
2022/12/04 15:52:46;;;;;;;;;0.00;0.00;;;;;;;;5094954;28;8769;-93
2022/12/04 15:55:15;;;;;;;;;0.67;0.67;;;;;;;;5092477;28;8829;-88
2022/12/04 15:57:42;;;;;;;;;0.00;0.00;;;;;;;;5094159;28;8836;-87
2022/12/04 16:00:26;;;;;;;;;0.00;0.00;;;;;;;;5091411;28;8881;-89
2022/12/04 16:02:52;;;;;;;;;0.33;0.33;;;;;;;;5079129;28;8809;-87
2022/12/04 16:05:20;;;;;;;;;0.00;0.00;;;;;;;;5074002;28;8830;-87
2022/12/04 16:07:50;;;;;;;;;0.00;0.00;;;;;;;;5072671;28;8803;-86
2022/12/04 16:10:20;;;;;;;;;1.00;1.00;;;;;;;;5090804;28;8837;-87
2022/12/04 16:12:50;;;;;;;;;12.00;12.00;;;;;;;;5091437;28;8853;-90
2022/12/04 16:15:16;;;;;;;;;0.00;0.00;;;;;;;;5072398;28;9823;-90
2022/12/04 16:17:41;;;;;;;;;1.00;1.00;;;;;;;;5073614;28;8842;-93
2022/12/04 16:20:06;;;;;;;;;0.00;0.00;;;;;;;;5068045;28;10029;-88
2022/12/04 16:22:31;;;;;;;;;3.00;3.00;;;;;;;;5055520;28;8858;-90
2022/12/04 16:24:57;;;;;;;;;0.00;0.00;;;;;;;;5071444;28;8828;-89
2022/12/04 16:27:23;;;;;;;;;0.00;0.00;;;;;;;;5071638;28;8872;-88
2022/12/04 16:29:48;;;;;;;;;1.00;1.00;;;;;;;;5075724;28;8815;-88
2022/12/04 16:32:15;;;;;;;;;0.00;0.00;;;;;;;;5089043;28;8822;-89